createdAt,value
2023-04-02T00:00:34.463Z,8.50
2023-04-02T00:03:03.880Z,8.47
2023-04-02T00:05:49.932Z,8.51
2023-04-02T00:08:26.453Z,8.49
2023-04-02T00:10:56.633Z,8.50
2023-04-02T00:13:43.569Z,8.46
2023-04-02T00:16:23.895Z,8.46
2023-04-02T00:18:55.525Z,8.42
2023-04-02T00:21:26.058Z,8.42
2023-04-02T00:23:58.920Z,8.48
2023-04-02T00:26:36.682Z,8.50
2023-04-02T00:29:07.593Z,8.49
2023-04-02T00:31:39.031Z,8.53
2023-04-02T00:34:09.080Z,8.58
2023-04-02T00:36:36.842Z,8.50
2023-04-02T00:39:12.962Z,8.52
2023-04-02T00:41:39.494Z,8.50
2023-04-02T00:44:06.095Z,8.52
2023-04-02T00:46:49.574Z,8.52
2023-04-02T00:49:31.474Z,8.63
2023-04-02T06:33:30.594Z,8.09
2023-04-02T06:35:57.881Z,8.07
2023-04-02T06:38:29.826Z,8.01
2023-04-02T06:41:05.255Z,8.00
2023-04-02T06:43:40.972Z,7.99
2023-04-02T06:46:19.918Z,7.99
2023-04-02T06:48:49.646Z,7.99
2023-04-02T06:51:20.286Z,7.99
2023-04-02T06:53:49.178Z,7.93
2023-04-02T06:56:22.725Z,7.96
2023-04-02T06:58:49.439Z,8.03
2023-04-02T07:01:19.470Z,7.92
2023-04-02T07:03:46.184Z,7.86
2023-04-02T07:06:18.279Z,7.87
2023-04-02T07:08:46.430Z,7.76
2023-04-02T07:11:20.878Z,7.85
2023-04-02T07:13:49.046Z,8.06
2023-04-02T07:16:27.453Z,7.88
2023-04-02T07:18:55.788Z,7.84
2023-04-02T07:21:24.418Z,7.73
2023-04-02T07:23:51.157Z,7.58
2023-04-02T07:26:25.304Z,7.57
2023-04-02T07:28:52.031Z,7.54
2023-04-02T07:31:23.449Z,7.52
2023-04-02T07:33:51.172Z,7.50
2023-04-02T07:36:23.391Z,7.41
2023-04-02T07:38:52.215Z,7.45
2023-04-02T07:41:20.976Z,7.59
2023-04-02T07:43:48.054Z,7.71
2023-04-02T07:46:17.437Z,7.76
2023-04-02T07:48:44.933Z,7.74
2023-04-02T07:51:18.054Z,7.70
2023-04-02T07:53:44.491Z,7.78
2023-04-02T07:56:15.041Z,7.81
2023-04-02T07:58:42.298Z,7.76
2023-04-02T08:01:17.270Z,7.84
2023-04-02T08:03:44.526Z,7.81
2023-04-02T08:06:12.370Z,7.68
2023-04-02T08:08:39.364Z,7.56
2023-04-02T08:11:06.100Z,7.59
2023-04-02T08:13:33.420Z,7.64
2023-04-02T08:16:01.749Z,7.70
2023-04-02T08:18:29.783Z,7.74
2023-04-02T08:20:57.152Z,7.91
2023-04-02T08:23:24.148Z,7.79
2023-04-02T08:25:50.887Z,8.03
2023-04-02T08:28:18.012Z,7.95
2023-04-02T08:30:45.797Z,7.73
2023-04-02T08:33:12.594Z,7.83
2023-04-02T08:35:40.018Z,7.75
2023-04-02T08:38:07.164Z,7.67
2023-04-02T08:40:38.601Z,7.46
2023-04-02T08:43:29.168Z,7.33
2023-04-02T08:45:58.852Z,7.40
2023-04-02T08:48:25.510Z,7.33
2023-04-02T08:50:52.748Z,7.42
2023-04-02T08:53:26.576Z,7.32
2023-04-02T08:56:18.924Z,7.35
2023-04-02T08:58:54.250Z,7.45
2023-04-02T09:01:36.776Z,7.44
2023-04-02T09:04:13.156Z,7.57
2023-04-02T09:06:40.983Z,7.66
2023-04-02T09:09:08.946Z,7.79
2023-04-02T09:11:47.669Z,7.84
2023-04-02T09:14:34.406Z,7.55
2023-04-02T09:17:03.698Z,7.39
2023-04-02T09:19:37.823Z,7.57
2023-04-02T09:22:31.620Z,7.97
2023-04-02T09:25:01.099Z,8.36
2023-04-02T09:27:34.382Z,8.17
2023-04-02T09:30:33.265Z,8.17
2023-04-02T09:33:02.557Z,8.00
2023-04-02T09:35:34.458Z,7.71
2023-04-02T09:38:09.849Z,7.72
2023-04-02T09:40:51.652Z,7.90
2023-04-02T09:43:24.040Z,7.76
2023-04-02T09:45:56.487Z,7.88
2023-04-02T09:48:30.043Z,7.82
2023-04-02T09:51:23.493Z,7.90
2023-04-02T09:54:07.205Z,8.03
2023-04-02T09:56:35.762Z,7.93
2023-04-02T09:59:12.968Z,7.97
2023-04-02T10:01:57.447Z,8.02
2023-04-02T10:04:47.772Z,8.05
2023-04-02T10:07:36.396Z,8.30
2023-04-02T10:10:18.136Z,8.14
2023-04-02T10:12:56.728Z,7.99
2023-04-02T10:15:35.179Z,7.88
2023-04-02T10:18:12.322Z,8.06
2023-04-02T10:20:50.575Z,8.06
2023-04-02T10:23:19.484Z,8.08
2023-04-02T10:26:23.745Z,7.91
2023-04-02T10:29:07.954Z,8.26
2023-04-02T10:31:41.030Z,8.58
2023-04-02T10:34:17.344Z,8.57
2023-04-02T10:36:54.236Z,8.34
2023-04-02T10:39:32.901Z,8.31
2023-04-02T10:42:18.529Z,8.35
2023-04-02T10:45:36.724Z,8.28
2023-04-02T10:48:28.554Z,8.55
2023-04-02T10:51:07.042Z,8.01
2023-04-02T10:53:48.875Z,8.09
2023-04-02T10:56:15.472Z,7.90
2023-04-02T10:58:59.518Z,7.97
2023-04-02T11:01:29.494Z,7.96
2023-04-02T11:04:01.844Z,7.91
2023-04-02T11:06:41.753Z,7.68
2023-04-02T11:09:18.177Z,8.06
2023-04-02T11:11:48.644Z,8.07
2023-04-02T11:14:26.442Z,8.31
2023-04-02T11:16:55.068Z,8.22
2023-04-02T11:19:30.243Z,8.63
2023-04-02T11:22:04.338Z,8.69
2023-04-02T11:24:42.936Z,8.51
2023-04-02T11:27:11.987Z,8.23
2023-04-02T11:29:58.906Z,8.29
2023-04-02T11:32:39.125Z,8.21
2023-04-02T11:35:30.592Z,8.09
2023-04-02T11:38:05.870Z,8.09
2023-04-02T11:40:47.746Z,8.10
2023-04-02T11:43:35.373Z,8.21
2023-04-02T11:46:03.597Z,8.35
2023-04-02T11:48:36.160Z,8.45
2023-04-02T11:51:22.302Z,8.64
2023-04-02T11:53:51.643Z,8.80
2023-04-02T11:56:31.562Z,8.49
2023-04-02T11:59:27.400Z,8.77
2023-04-02T12:02:09.555Z,8.90
2023-04-02T12:05:07.458Z,8.97
2023-04-02T12:07:56.637Z,9.17
2023-04-02T12:10:28.420Z,9.43
2023-04-02T12:12:54.927Z,9.37
2023-04-02T12:15:31.530Z,8.99
2023-04-02T12:18:16.993Z,8.76
2023-04-02T12:20:52.856Z,8.68
2023-04-02T12:23:22.630Z,8.74
2023-04-02T12:26:01.249Z,8.86
2023-04-02T12:28:31.022Z,9.29
2023-04-02T12:31:18.438Z,9.33
2023-04-02T12:33:45.713Z,9.40
2023-04-02T12:36:14.097Z,9.10
2023-04-02T12:38:45.618Z,8.92
2023-04-02T12:41:30.784Z,9.08
2023-04-02T12:44:04.024Z,9.48
2023-04-02T12:46:31.946Z,8.85
2023-04-02T12:49:05.888Z,9.23
2023-04-02T12:51:36.236Z,9.61
2023-04-02T12:54:04.554Z,9.40
2023-04-02T12:56:31.362Z,8.87
2023-04-02T12:58:58.777Z,8.89
2023-04-02T13:01:31.436Z,9.00
2023-04-02T13:04:06.200Z,8.92
2023-04-02T13:06:35.182Z,9.00
2023-04-02T13:09:04.866Z,9.07
2023-04-02T13:11:41.898Z,9.33
2023-04-02T13:14:17.980Z,9.36
2023-04-02T13:16:44.488Z,8.88
2023-04-02T13:19:16.731Z,8.57
2023-04-02T13:21:44.713Z,8.48
2023-04-02T13:24:22.952Z,8.77
2023-04-02T13:26:51.202Z,8.73
2023-04-02T13:29:25.778Z,8.82
2023-04-02T13:31:55.793Z,8.69
2023-04-02T13:34:22.695Z,9.02
2023-04-02T13:36:49.472Z,9.40
2023-04-02T13:39:16.555Z,9.89
2023-04-02T13:41:45.766Z,9.51
2023-04-02T13:44:27.927Z,9.69
2023-04-02T13:46:55.658Z,10.02
2023-04-02T13:49:23.363Z,9.65
2023-04-02T13:51:58.011Z,9.54
2023-04-02T13:54:37.162Z,9.84
2023-04-02T13:57:03.771Z,9.31
2023-04-02T13:59:30.264Z,9.25
2023-04-02T14:02:03.148Z,9.28
2023-04-02T14:04:33.200Z,9.24
2023-04-02T14:07:14.960Z,8.91
2023-04-02T14:10:03.839Z,8.86
2023-04-02T14:12:51.951Z,8.76
2023-04-02T14:15:37.107Z,8.75
2023-04-02T14:18:36.528Z,8.61
2023-04-02T14:21:10.835Z,8.44
2023-04-02T14:23:58.418Z,8.40
2023-04-02T14:27:18.710Z,8.32
2023-04-02T14:30:04.272Z,8.16
2023-04-02T14:32:55.405Z,8.16
2023-04-02T14:35:37.191Z,8.03
2023-04-02T14:38:26.704Z,8.04
2023-04-02T14:41:02.052Z,8.07
2023-04-02T14:43:54.345Z,8.10
2023-04-02T14:46:26.481Z,8.08
2023-04-02T14:49:01.628Z,8.15
2023-04-02T14:51:37.463Z,8.03
2023-04-02T14:54:11.068Z,8.05
2023-04-02T14:56:55.378Z,8.04
2023-04-02T14:59:35.468Z,8.12
2023-04-02T15:02:13.259Z,8.19
2023-04-02T15:05:01.221Z,8.31
2023-04-02T15:07:38.949Z,8.31
2023-04-02T15:10:23.859Z,8.34
2023-04-02T15:12:52.236Z,8.13
2023-04-02T15:15:44.473Z,8.14
2023-04-02T15:18:15.402Z,8.06
2023-04-02T15:20:55.573Z,8.13
2023-04-02T15:23:41.651Z,8.10
2023-04-02T15:26:14.137Z,8.18
2023-04-02T15:28:47.595Z,8.03
2023-04-02T15:31:15.039Z,7.93
2023-04-02T15:33:44.499Z,7.99
2023-04-02T15:36:31.327Z,8.05
2023-04-02T15:39:11.074Z,8.04
2023-04-02T15:41:47.585Z,7.97
2023-04-02T15:44:17.030Z,7.96
2023-04-02T15:46:57.093Z,7.86
2023-04-02T15:49:29.292Z,8.00
2023-04-02T15:52:34.152Z,7.91
2023-04-02T15:55:25.572Z,7.81
2023-04-02T15:58:19.995Z,7.85
2023-04-02T16:01:02.196Z,7.92
2023-04-02T16:03:48.224Z,7.82
2023-04-02T16:06:26.070Z,7.73
2023-04-02T16:09:21.668Z,7.70
2023-04-02T16:11:55.818Z,7.71
2023-04-02T16:14:33.068Z,7.66
2023-04-02T16:17:14.235Z,7.58
2023-04-02T16:19:50.562Z,7.64
2023-04-02T16:22:17.226Z,7.65
2023-04-02T16:24:48.664Z,7.69
2023-04-02T16:27:40.214Z,7.48
2023-04-02T16:30:22.505Z,7.42
2023-04-02T16:33:14.249Z,7.50
2023-04-02T16:36:06.991Z,7.42
2023-04-02T16:38:54.019Z,7.34
2023-04-02T16:42:00.077Z,7.25
2023-04-02T16:44:39.959Z,7.14
2023-04-02T16:47:29.377Z,7.07
2023-04-02T16:49:59.770Z,6.96
2023-04-02T16:52:32.231Z,7.04
2023-04-02T16:55:29.709Z,6.86
2023-04-02T16:58:11.556Z,6.80
2023-04-02T17:00:42.242Z,6.77
2023-04-02T17:03:38.891Z,6.77
2023-04-02T17:06:09.206Z,6.57
2023-04-02T17:08:43.577Z,6.52
2023-04-02T17:11:23.742Z,6.49
2023-04-02T17:14:07.948Z,6.45
2023-04-02T17:16:40.562Z,6.40
2023-04-02T17:19:12.433Z,6.44
2023-04-02T17:21:43.219Z,6.25
2023-04-02T17:24:27.944Z,6.24
2023-04-02T17:27:06.103Z,6.19
2023-04-02T17:29:37.654Z,6.23
2023-04-02T17:32:12.037Z,6.17
2023-04-02T17:34:38.574Z,6.08
2023-04-02T17:37:05.596Z,6.00
2023-04-02T17:40:04.593Z,5.97
2023-04-02T17:42:44.005Z,5.89
2023-04-02T17:45:23.189Z,5.87
2023-04-02T17:48:17.954Z,5.81
2023-04-02T17:51:02.760Z,5.90
2023-04-02T17:53:39.328Z,5.77
2023-04-02T17:56:17.281Z,5.71
2023-04-02T17:59:13.139Z,5.80
2023-04-02T18:01:53.879Z,5.84
2023-04-02T18:04:42.455Z,5.64
2023-04-02T18:07:36.721Z,5.69
2023-04-02T18:10:35.830Z,5.72
2023-04-02T18:13:13.137Z,5.69
2023-04-02T18:16:35.570Z,5.60
2023-04-02T18:19:19.064Z,5.66
2023-04-02T18:22:04.460Z,5.56
2023-04-02T18:24:31.499Z,5.62
2023-04-02T18:27:10.969Z,5.70
2023-04-02T18:29:49.165Z,5.63
2023-04-02T18:32:47.185Z,5.60
2023-04-02T18:35:32.617Z,5.56
2023-04-02T18:38:21.355Z,5.69
2023-04-02T18:41:01.676Z,5.62
2023-04-02T18:44:00.964Z,5.59
2023-04-02T18:46:36.830Z,5.59
2023-04-02T18:49:24.583Z,5.64
2023-04-02T18:51:57.171Z,5.60
2023-04-02T18:54:32.766Z,5.60
2023-04-02T18:57:02.648Z,5.58
2023-04-02T18:59:47.837Z,5.60
2023-04-02T19:02:20.380Z,5.64
2023-04-02T19:04:58.198Z,5.60
2023-04-02T19:07:28.852Z,5.60
2023-04-02T19:09:58.825Z,5.62
2023-04-02T19:12:25.428Z,5.51
2023-04-02T19:14:52.633Z,5.54
2023-04-02T19:17:40.729Z,5.61
2023-04-02T19:20:10.688Z,5.67
2023-04-02T19:23:00.772Z,5.68
2023-04-02T19:25:51.136Z,5.63
2023-04-02T19:28:29.936Z,5.49
2023-04-02T19:31:29.289Z,5.60
2023-04-02T19:34:21.802Z,5.60
2023-04-02T19:36:57.033Z,5.61
2023-04-02T19:39:26.625Z,5.60
2023-04-02T19:42:00.525Z,5.54
2023-04-02T19:44:27.219Z,5.58
2023-04-02T19:46:53.897Z,5.52
2023-04-02T19:49:28.401Z,5.50
2023-04-02T19:51:55.644Z,5.48
2023-04-02T19:54:22.695Z,5.52
2023-04-02T19:56:49.484Z,5.50
2023-04-02T19:59:18.505Z,5.47
2023-04-02T20:01:46.340Z,5.45
2023-04-02T20:04:13.319Z,5.48
2023-04-02T20:06:39.819Z,5.53
2023-04-02T20:09:08.041Z,5.45
2023-04-02T20:11:36.122Z,5.48
2023-04-02T20:14:03.168Z,5.46
2023-04-02T20:16:29.601Z,5.46
2023-04-02T20:18:56.738Z,5.48
2023-04-02T20:21:23.312Z,5.50
2023-04-02T20:23:56.302Z,5.46
2023-04-02T20:26:23.177Z,5.49
2023-04-02T20:28:49.984Z,5.41
2023-04-02T20:31:18.248Z,5.39
2023-04-02T20:33:45.516Z,5.44
2023-04-02T20:36:15.594Z,5.41
2023-04-02T20:38:43.460Z,5.41
2023-04-02T20:41:10.226Z,5.51
2023-04-02T20:43:37.389Z,5.48
2023-04-02T20:46:06.417Z,5.43
2023-04-02T20:48:36.050Z,5.33
2023-04-02T20:51:05.490Z,5.33
2023-04-02T20:53:34.523Z,5.33
2023-04-02T20:56:16.068Z,5.40
2023-04-02T20:58:45.578Z,5.34
2023-04-02T21:01:18.339Z,5.32
2023-04-02T21:03:45.352Z,5.31
2023-04-02T21:06:13.247Z,5.28
2023-04-02T21:08:40.145Z,5.33
2023-04-02T21:11:07.309Z,5.29
2023-04-02T21:13:37.754Z,5.25
2023-04-02T21:16:38.075Z,5.36
2023-04-02T21:19:08.296Z,5.29
2023-04-02T21:21:36.054Z,5.21
2023-04-02T21:24:05.564Z,5.20
2023-04-02T21:26:35.125Z,5.24
2023-04-02T21:29:01.885Z,5.18
2023-04-02T21:31:30.648Z,5.24
2023-04-02T21:33:58.361Z,5.27
2023-04-02T21:36:33.764Z,5.26
2023-04-02T21:39:03.382Z,5.20
2023-04-02T21:41:32.974Z,5.23
2023-04-02T21:44:02.987Z,5.20
2023-04-02T21:46:31.568Z,5.19
2023-04-02T21:48:59.463Z,5.22
2023-04-02T21:51:28.731Z,5.17
2023-04-02T21:53:55.869Z,5.14
2023-04-02T21:56:28.543Z,5.09
2023-04-02T21:58:56.803Z,5.15
2023-04-02T22:01:28.045Z,5.23
2023-04-02T22:03:56.437Z,5.13
2023-04-02T22:06:25.364Z,5.12
2023-04-02T22:09:05.015Z,5.04
2023-04-02T22:11:34.159Z,4.84
2023-04-02T22:14:03.227Z,4.85
2023-04-02T22:16:31.774Z,4.63
2023-04-02T22:19:02.182Z,4.46
2023-04-02T22:21:30.943Z,4.48
2023-04-02T22:24:03.090Z,4.47
2023-04-02T22:26:30.271Z,4.32
2023-04-02T22:28:57.156Z,4.11
2023-04-02T22:31:26.498Z,4.04
2023-04-02T22:33:54.841Z,4.03
2023-04-02T22:36:22.724Z,3.99
2023-04-02T22:38:51.796Z,4.01
2023-04-02T22:41:26.237Z,3.99
2023-04-02T22:43:53.546Z,4.11
2023-04-02T22:46:21.686Z,4.14
2023-04-02T22:48:49.348Z,3.95
2023-04-02T22:51:18.247Z,3.89
2023-04-02T22:53:45.734Z,3.87
2023-04-02T22:56:21.865Z,3.84
2023-04-02T22:58:49.327Z,3.82
2023-04-02T23:01:25.679Z,3.77
2023-04-02T23:03:53.937Z,3.89
2023-04-02T23:06:21.032Z,3.82
2023-04-02T23:08:47.724Z,3.76
2023-04-02T23:11:19.917Z,4.04
2023-04-02T23:13:48.842Z,3.97
2023-04-02T23:16:16.753Z,3.75
2023-04-02T23:18:47.145Z,3.77
2023-04-02T23:21:14.620Z,3.97
2023-04-02T23:23:41.939Z,3.97
2023-04-02T23:26:14.750Z,3.78
2023-04-02T23:28:41.174Z,3.75
2023-04-02T23:31:13.178Z,3.89
2023-04-02T23:33:40.359Z,3.98
2023-04-02T23:36:10.678Z,3.97
2023-04-02T23:38:37.954Z,3.88
2023-04-02T23:41:04.547Z,3.78
2023-04-02T23:43:31.401Z,3.72
2023-04-02T23:45:58.161Z,3.81
2023-04-02T23:48:24.733Z,3.84
2023-04-02T23:50:51.215Z,3.75
2023-04-02T23:53:18.575Z,3.77
2023-04-02T23:55:45.710Z,3.90
2023-04-02T23:58:12.174Z,3.85
